sensor_id;sensor_type;location;lat;lon;timestamp;temperature;humidity
47779;DHT22;33538;48.432;11.350;2022-09-23T00:01:05;8.60;79.60
47779;DHT22;33538;48.432;11.350;2022-09-23T00:03:32;8.60;79.60
47779;DHT22;33538;48.432;11.350;2022-09-23T00:06:00;8.60;80.00
47779;DHT22;33538;48.432;11.350;2022-09-23T00:08:28;8.50;80.00
47779;DHT22;33538;48.432;11.350;2022-09-23T00:10:55;8.40;79.70
47779;DHT22;33538;48.432;11.350;2022-09-23T00:13:24;8.40;80.60
47779;DHT22;33538;48.432;11.350;2022-09-23T00:15:51;8.30;80.00
47779;DHT22;33538;48.432;11.350;2022-09-23T00:18:18;8.30;79.80
47779;DHT22;33538;48.432;11.350;2022-09-23T00:20:44;8.20;80.10
47779;DHT22;33538;48.432;11.350;2022-09-23T00:23:11;8.10;80.50
47779;DHT22;33538;48.432;11.350;2022-09-23T00:25:38;7.90;81.80
47779;DHT22;33538;48.432;11.350;2022-09-23T00:28:05;8.10;82.00
47779;DHT22;33538;48.432;11.350;2022-09-23T00:30:33;8.20;80.70
47779;DHT22;33538;48.432;11.350;2022-09-23T00:33:00;8.20;79.90
47779;DHT22;33538;48.432;11.350;2022-09-23T00:35:27;8.30;79.90
47779;DHT22;33538;48.432;11.350;2022-09-23T00:37:53;8.20;79.70
47779;DHT22;33538;48.432;11.350;2022-09-23T00:40:20;8.30;79.40
47779;DHT22;33538;48.432;11.350;2022-09-23T00:42:48;8.20;80.00
47779;DHT22;33538;48.432;11.350;2022-09-23T00:45:15;7.90;81.00
47779;DHT22;33538;48.432;11.350;2022-09-23T00:47:52;8.00;80.90
47779;DHT22;33538;48.432;11.350;2022-09-23T00:50:23;8.10;80.10
47779;DHT22;33538;48.432;11.350;2022-09-23T00:52:53;8.20;79.80
47779;DHT22;33538;48.432;11.350;2022-09-23T00:55:24;8.20;79.50
47779;DHT22;33538;48.432;11.350;2022-09-23T00:57:55;8.20;79.30
47779;DHT22;33538;48.432;11.350;2022-09-23T01:00:23;8.00;79.40
47779;DHT22;33538;48.432;11.350;2022-09-23T01:02:51;8.10;79.80
47779;DHT22;33538;48.432;11.350;2022-09-23T01:05:18;8.10;79.60
47779;DHT22;33538;48.432;11.350;2022-09-23T01:07:46;8.10;79.40
47779;DHT22;33538;48.432;11.350;2022-09-23T01:10:14;8.10;79.20
47779;DHT22;33538;48.432;11.350;2022-09-23T01:12:55;8.10;79.30
47779;DHT22;33538;48.432;11.350;2022-09-23T01:15:29;8.10;78.70
47779;DHT22;33538;48.432;11.350;2022-09-23T01:18:09;8.10;78.70
47779;DHT22;33538;48.432;11.350;2022-09-23T01:23:55;8.10;78.90
47779;DHT22;33538;48.432;11.350;2022-09-23T01:26:42;8.10;78.40
47779;DHT22;33538;48.432;11.350;2022-09-23T01:29:35;8.10;78.30
47779;DHT22;33538;48.432;11.350;2022-09-23T01:32:13;8.00;78.70
47779;DHT22;33538;48.432;11.350;2022-09-23T01:34:47;8.10;78.40
47779;DHT22;33538;48.432;11.350;2022-09-23T01:37:21;8.00;78.30
47779;DHT22;33538;48.432;11.350;2022-09-23T01:39:50;8.00;78.40
47779;DHT22;33538;48.432;11.350;2022-09-23T01:42:25;8.00;78.70
47779;DHT22;33538;48.432;11.350;2022-09-23T01:44:57;8.00;78.40
47779;DHT22;33538;48.432;11.350;2022-09-23T01:47:30;8.00;78.50
47779;DHT22;33538;48.432;11.350;2022-09-23T01:49:59;7.80;79.30
47779;DHT22;33538;48.432;11.350;2022-09-23T01:52:33;7.70;79.50
47779;DHT22;33538;48.432;11.350;2022-09-23T01:55:06;7.70;79.70
47779;DHT22;33538;48.432;11.350;2022-09-23T01:57:36;7.80;78.90
47779;DHT22;33538;48.432;11.350;2022-09-23T02:00:09;7.80;78.50
47779;DHT22;33538;48.432;11.350;2022-09-23T02:02:41;7.80;79.00
47779;DHT22;33538;48.432;11.350;2022-09-23T02:05:13;7.80;78.90
47779;DHT22;33538;48.432;11.350;2022-09-23T02:07:45;7.80;79.40
47779;DHT22;33538;48.432;11.350;2022-09-23T02:10:18;7.80;78.40
47779;DHT22;33538;48.432;11.350;2022-09-23T02:12:47;7.70;78.50
47779;DHT22;33538;48.432;11.350;2022-09-23T02:15:17;7.70;78.50
47779;DHT22;33538;48.432;11.350;2022-09-23T02:17:49;7.70;78.60
47779;DHT22;33538;48.432;11.350;2022-09-23T02:20:20;7.60;78.70
47779;DHT22;33538;48.432;11.350;2022-09-23T02:22:51;7.60;79.00
47779;DHT22;33538;48.432;11.350;2022-09-23T02:25:20;7.50;79.10
47779;DHT22;33538;48.432;11.350;2022-09-23T02:27:54;7.60;79.20
47779;DHT22;33538;48.432;11.350;2022-09-23T02:30:25;7.50;79.10
47779;DHT22;33538;48.432;11.350;2022-09-23T02:33:00;7.60;78.80
47779;DHT22;33538;48.432;11.350;2022-09-23T02:35:30;7.60;78.70
47779;DHT22;33538;48.432;11.350;2022-09-23T02:38:07;7.60;78.60
47779;DHT22;33538;48.432;11.350;2022-09-23T02:40:42;7.70;78.20
47779;DHT22;33538;48.432;11.350;2022-09-23T02:43:18;7.50;78.70
47779;DHT22;33538;48.432;11.350;2022-09-23T02:45:47;7.50;79.10
47779;DHT22;33538;48.432;11.350;2022-09-23T02:48:19;7.50;78.70
47779;DHT22;33538;48.432;11.350;2022-09-23T02:50:47;7.40;78.10
47779;DHT22;33538;48.432;11.350;2022-09-23T02:53:14;7.40;78.20
47779;DHT22;33538;48.432;11.350;2022-09-23T02:55:42;7.50;78.00
47779;DHT22;33538;48.432;11.350;2022-09-23T02:58:11;7.20;79.00
47779;DHT22;33538;48.432;11.350;2022-09-23T03:00:45;7.00;80.00
47779;DHT22;33538;48.432;11.350;2022-09-23T03:03:25;7.20;79.30
47779;DHT22;33538;48.432;11.350;2022-09-23T03:05:56;7.20;78.90
47779;DHT22;33538;48.432;11.350;2022-09-23T03:08:31;7.30;78.90
47779;DHT22;33538;48.432;11.350;2022-09-23T03:11:04;7.30;78.90
47779;DHT22;33538;48.432;11.350;2022-09-23T03:13:38;7.40;78.60
47779;DHT22;33538;48.432;11.350;2022-09-23T03:16:11;7.40;78.60
47779;DHT22;33538;48.432;11.350;2022-09-23T03:18:47;7.30;79.40
47779;DHT22;33538;48.432;11.350;2022-09-23T03:21:20;7.20;79.00
47779;DHT22;33538;48.432;11.350;2022-09-23T03:23:49;7.30;78.70
47779;DHT22;33538;48.432;11.350;2022-09-23T03:26:20;7.30;78.30
47779;DHT22;33538;48.432;11.350;2022-09-23T03:28:48;7.20;78.70
47779;DHT22;33538;48.432;11.350;2022-09-23T03:31:15;7.20;78.80
47779;DHT22;33538;48.432;11.350;2022-09-23T03:33:47;7.20;78.30
47779;DHT22;33538;48.432;11.350;2022-09-23T03:36:19;7.20;78.60
47779;DHT22;33538;48.432;11.350;2022-09-23T03:38:49;7.20;78.00
47779;DHT22;33538;48.432;11.350;2022-09-23T03:41:22;7.20;78.10
47779;DHT22;33538;48.432;11.350;2022-09-23T03:43:51;7.20;78.30
47779;DHT22;33538;48.432;11.350;2022-09-23T03:46:18;7.10;77.80
47779;DHT22;33538;48.432;11.350;2022-09-23T03:48:47;7.10;78.40
47779;DHT22;33538;48.432;11.350;2022-09-23T03:51:19;7.10;78.00
47779;DHT22;33538;48.432;11.350;2022-09-23T03:53:46;7.10;78.10
47779;DHT22;33538;48.432;11.350;2022-09-23T03:56:13;7.10;78.00
47779;DHT22;33538;48.432;11.350;2022-09-23T03:58:40;7.00;78.20
47779;DHT22;33538;48.432;11.350;2022-09-23T04:01:07;7.10;78.50
47779;DHT22;33538;48.432;11.350;2022-09-23T04:03:34;7.10;78.70
47779;DHT22;33538;48.432;11.350;2022-09-23T04:06:02;7.00;78.90
47779;DHT22;33538;48.432;11.350;2022-09-23T04:08:28;7.00;78.90
47779;DHT22;33538;48.432;11.350;2022-09-23T04:10:59;7.10;78.60
47779;DHT22;33538;48.432;11.350;2022-09-23T04:13:26;7.10;78.80
47779;DHT22;33538;48.432;11.350;2022-09-23T04:15:52;7.00;78.80
47779;DHT22;33538;48.432;11.350;2022-09-23T04:18:19;7.00;78.50
47779;DHT22;33538;48.432;11.350;2022-09-23T04:20:46;7.10;78.30
47779;DHT22;33538;48.432;11.350;2022-09-23T04:23:15;7.00;78.20
47779;DHT22;33538;48.432;11.350;2022-09-23T04:25:45;7.00;78.40
47779;DHT22;33538;48.432;11.350;2022-09-23T04:28:12;7.10;77.90
47779;DHT22;33538;48.432;11.350;2022-09-23T04:30:39;7.10;77.70
47779;DHT22;33538;48.432;11.350;2022-09-23T04:33:05;6.90;78.00
47779;DHT22;33538;48.432;11.350;2022-09-23T04:35:32;6.90;78.60
47779;DHT22;33538;48.432;11.350;2022-09-23T04:38:06;6.90;78.40
47779;DHT22;33538;48.432;11.350;2022-09-23T04:40:34;7.00;78.10
47779;DHT22;33538;48.432;11.350;2022-09-23T04:43:01;6.90;78.50
47779;DHT22;33538;48.432;11.350;2022-09-23T04:45:28;6.90;78.50
47779;DHT22;33538;48.432;11.350;2022-09-23T04:47:55;6.90;78.30
47779;DHT22;33538;48.432;11.350;2022-09-23T04:50:22;6.90;78.70
47779;DHT22;33538;48.432;11.350;2022-09-23T04:52:48;6.90;78.30
47779;DHT22;33538;48.432;11.350;2022-09-23T04:55:15;6.90;78.30
47779;DHT22;33538;48.432;11.350;2022-09-23T04:57:44;6.80;78.20
47779;DHT22;33538;48.432;11.350;2022-09-23T05:00:11;6.80;78.40
47779;DHT22;33538;48.432;11.350;2022-09-23T05:02:41;6.80;78.40
47779;DHT22;33538;48.432;11.350;2022-09-23T05:05:08;6.80;78.50
47779;DHT22;33538;48.432;11.350;2022-09-23T05:07:35;6.70;78.90
47779;DHT22;33538;48.432;11.350;2022-09-23T05:10:03;6.70;78.80
47779;DHT22;33538;48.432;11.350;2022-09-23T05:12:30;6.50;79.60
47779;DHT22;33538;48.432;11.350;2022-09-23T05:14:58;6.60;79.50
47779;DHT22;33538;48.432;11.350;2022-09-23T05:17:25;6.70;79.50
47779;DHT22;33538;48.432;11.350;2022-09-23T05:19:51;6.80;78.80
47779;DHT22;33538;48.432;11.350;2022-09-23T05:22:18;6.80;78.30
47779;DHT22;33538;48.432;11.350;2022-09-23T05:24:45;6.80;78.30
47779;DHT22;33538;48.432;11.350;2022-09-23T05:27:11;6.90;78.20
47779;DHT22;33538;48.432;11.350;2022-09-23T05:29:38;6.80;78.30
47779;DHT22;33538;48.432;11.350;2022-09-23T05:32:06;6.80;78.40
47779;DHT22;33538;48.432;11.350;2022-09-23T05:34:33;6.70;78.80
47779;DHT22;33538;48.432;11.350;2022-09-23T05:37:00;6.50;79.10
47779;DHT22;33538;48.432;11.350;2022-09-23T05:39:27;6.60;80.00
47779;DHT22;33538;48.432;11.350;2022-09-23T05:41:53;6.60;79.30
47779;DHT22;33538;48.432;11.350;2022-09-23T05:44:20;6.80;79.50
47779;DHT22;33538;48.432;11.350;2022-09-23T05:46:47;6.70;79.80
47779;DHT22;33538;48.432;11.350;2022-09-23T05:49:15;6.70;79.20
47779;DHT22;33538;48.432;11.350;2022-09-23T05:51:42;6.80;78.80
47779;DHT22;33538;48.432;11.350;2022-09-23T05:54:09;6.80;79.10
47779;DHT22;33538;48.432;11.350;2022-09-23T05:56:36;6.80;79.10
47779;DHT22;33538;48.432;11.350;2022-09-23T05:59:04;6.70;79.90
47779;DHT22;33538;48.432;11.350;2022-09-23T06:01:32;6.60;80.30
47779;DHT22;33538;48.432;11.350;2022-09-23T06:04:01;6.70;81.30
47779;DHT22;33538;48.432;11.350;2022-09-23T06:06:32;6.70;81.10
47779;DHT22;33538;48.432;11.350;2022-09-23T06:08:59;6.80;81.70
47779;DHT22;33538;48.432;11.350;2022-09-23T06:11:29;6.70;81.80
47779;DHT22;33538;48.432;11.350;2022-09-23T06:13:57;6.90;81.30
47779;DHT22;33538;48.432;11.350;2022-09-23T06:16:24;7.00;81.10
47779;DHT22;33538;48.432;11.350;2022-09-23T06:18:51;7.00;81.30
47779;DHT22;33538;48.432;11.350;2022-09-23T06:21:17;7.00;81.70
47779;DHT22;33538;48.432;11.350;2022-09-23T06:23:46;7.10;82.40
47779;DHT22;33538;48.432;11.350;2022-09-23T06:26:14;7.20;83.60
47779;DHT22;33538;48.432;11.350;2022-09-23T06:28:43;7.30;82.90
47779;DHT22;33538;48.432;11.350;2022-09-23T06:31:11;7.30;84.40
47779;DHT22;33538;48.432;11.350;2022-09-23T06:33:40;7.40;84.90
47779;DHT22;33538;48.432;11.350;2022-09-23T06:36:07;7.50;84.50
47779;DHT22;33538;48.432;11.350;2022-09-23T06:38:37;7.60;82.00
47779;DHT22;33538;48.432;11.350;2022-09-23T06:41:06;7.60;77.50
47779;DHT22;33538;48.432;11.350;2022-09-23T06:43:33;7.70;76.50
47779;DHT22;33538;48.432;11.350;2022-09-23T06:46:01;7.80;76.10
47779;DHT22;33538;48.432;11.350;2022-09-23T06:48:28;7.80;75.80
47779;DHT22;33538;48.432;11.350;2022-09-23T06:50:58;7.80;75.80
47779;DHT22;33538;48.432;11.350;2022-09-23T06:53:25;7.90;75.80
47779;DHT22;33538;48.432;11.350;2022-09-23T06:55:57;7.90;75.90
47779;DHT22;33538;48.432;11.350;2022-09-23T06:58:25;7.90;76.00
47779;DHT22;33538;48.432;11.350;2022-09-23T07:00:52;7.90;76.10
47779;DHT22;33538;48.432;11.350;2022-09-23T07:03:19;7.90;75.90
47779;DHT22;33538;48.432;11.350;2022-09-23T07:05:45;8.00;76.00
47779;DHT22;33538;48.432;11.350;2022-09-23T07:08:12;8.00;75.80
47779;DHT22;33538;48.432;11.350;2022-09-23T07:10:39;8.00;75.70
47779;DHT22;33538;48.432;11.350;2022-09-23T07:13:05;8.00;75.80
47779;DHT22;33538;48.432;11.350;2022-09-23T07:15:34;8.00;75.80
47779;DHT22;33538;48.432;11.350;2022-09-23T07:18:00;8.10;75.70
47779;DHT22;33538;48.432;11.350;2022-09-23T07:20:27;8.10;75.80
47779;DHT22;33538;48.432;11.350;2022-09-23T07:22:54;8.10;75.60
47779;DHT22;33538;48.432;11.350;2022-09-23T07:25:21;8.10;75.60
47779;DHT22;33538;48.432;11.350;2022-09-23T07:27:48;8.10;76.10
47779;DHT22;33538;48.432;11.350;2022-09-23T07:30:15;8.10;75.80
47779;DHT22;33538;48.432;11.350;2022-09-23T07:32:51;8.20;75.90
47779;DHT22;33538;48.432;11.350;2022-09-23T07:35:18;8.20;76.00
47779;DHT22;33538;48.432;11.350;2022-09-23T07:37:45;8.20;76.00
47779;DHT22;33538;48.432;11.350;2022-09-23T07:40:12;8.20;77.00
47779;DHT22;33538;48.432;11.350;2022-09-23T07:42:39;8.20;76.60
47779;DHT22;33538;48.432;11.350;2022-09-23T07:45:07;8.30;76.40
47779;DHT22;33538;48.432;11.350;2022-09-23T07:47:34;8.30;76.50
47779;DHT22;33538;48.432;11.350;2022-09-23T07:50:02;8.30;76.50
47779;DHT22;33538;48.432;11.350;2022-09-23T07:52:29;8.40;76.60
47779;DHT22;33538;48.432;11.350;2022-09-23T07:54:56;8.40;76.80
47779;DHT22;33538;48.432;11.350;2022-09-23T07:57:23;8.40;76.70
47779;DHT22;33538;48.432;11.350;2022-09-23T07:59:50;8.40;76.70
47779;DHT22;33538;48.432;11.350;2022-09-23T08:02:16;8.50;76.70
47779;DHT22;33538;48.432;11.350;2022-09-23T08:04:43;8.50;76.50
47779;DHT22;33538;48.432;11.350;2022-09-23T08:07:12;8.60;76.40
47779;DHT22;33538;48.432;11.350;2022-09-23T08:09:41;8.60;76.20
47779;DHT22;33538;48.432;11.350;2022-09-23T08:12:08;8.70;76.00
47779;DHT22;33538;48.432;11.350;2022-09-23T08:14:41;8.70;76.10
47779;DHT22;33538;48.432;11.350;2022-09-23T08:17:08;8.70;76.70
47779;DHT22;33538;48.432;11.350;2022-09-23T08:19:36;8.70;76.50
47779;DHT22;33538;48.432;11.350;2022-09-23T08:22:03;8.80;76.40
47779;DHT22;33538;48.432;11.350;2022-09-23T08:24:31;8.80;76.60
47779;DHT22;33538;48.432;11.350;2022-09-23T08:26:58;8.80;76.60
47779;DHT22;33538;48.432;11.350;2022-09-23T08:29:25;8.80;76.70
47779;DHT22;33538;48.432;11.350;2022-09-23T08:31:52;8.90;76.80
47779;DHT22;33538;48.432;11.350;2022-09-23T08:34:20;8.90;77.10
47779;DHT22;33538;48.432;11.350;2022-09-23T08:36:47;8.90;77.20
47779;DHT22;33538;48.432;11.350;2022-09-23T08:39:15;9.00;77.00
47779;DHT22;33538;48.432;11.350;2022-09-23T08:41:47;9.00;76.90
47779;DHT22;33538;48.432;11.350;2022-09-23T08:44:26;9.10;76.90
47779;DHT22;33538;48.432;11.350;2022-09-23T08:47:06;9.10;76.90
47779;DHT22;33538;48.432;11.350;2022-09-23T08:49:37;9.10;77.20
47779;DHT22;33538;48.432;11.350;2022-09-23T08:52:08;9.10;77.20
47779;DHT22;33538;48.432;11.350;2022-09-23T08:54:37;9.20;77.60
47779;DHT22;33538;48.432;11.350;2022-09-23T08:57:06;9.20;77.80
47779;DHT22;33538;48.432;11.350;2022-09-23T08:59:38;9.20;78.00
47779;DHT22;33538;48.432;11.350;2022-09-23T09:02:12;9.20;78.00
47779;DHT22;33538;48.432;11.350;2022-09-23T09:04:41;9.30;78.20
47779;DHT22;33538;48.432;11.350;2022-09-23T09:07:13;9.30;78.30
47779;DHT22;33538;48.432;11.350;2022-09-23T09:10:04;9.30;78.60
47779;DHT22;33538;48.432;11.350;2022-09-23T09:12:41;9.30;78.80
47779;DHT22;33538;48.432;11.350;2022-09-23T09:15:12;9.40;79.20
47779;DHT22;33538;48.432;11.350;2022-09-23T09:17:47;9.40;79.30
47779;DHT22;33538;48.432;11.350;2022-09-23T09:20:22;9.50;79.70
47779;DHT22;33538;48.432;11.350;2022-09-23T09:22:52;9.50;79.90
47779;DHT22;33538;48.432;11.350;2022-09-23T09:25:32;9.50;80.20
47779;DHT22;33538;48.432;11.350;2022-09-23T09:28:03;9.60;80.80
47779;DHT22;33538;48.432;11.350;2022-09-23T09:30:36;9.60;81.20
47779;DHT22;33538;48.432;11.350;2022-09-23T09:33:09;9.70;81.90
47779;DHT22;33538;48.432;11.350;2022-09-23T09:35:45;9.70;83.00
47779;DHT22;33538;48.432;11.350;2022-09-23T09:38:18;9.70;83.10
47779;DHT22;33538;48.432;11.350;2022-09-23T09:40:46;9.70;83.10
47779;DHT22;33538;48.432;11.350;2022-09-23T09:43:17;9.80;84.40
47779;DHT22;33538;48.432;11.350;2022-09-23T09:45:52;9.80;84.50
47779;DHT22;33538;48.432;11.350;2022-09-23T09:48:29;9.90;85.30
47779;DHT22;33538;48.432;11.350;2022-09-23T09:51:16;9.80;85.10
47779;DHT22;33538;48.432;11.350;2022-09-23T09:53:43;9.90;85.90
47779;DHT22;33538;48.432;11.350;2022-09-23T09:56:12;9.90;86.60
47779;DHT22;33538;48.432;11.350;2022-09-23T09:58:45;10.00;86.30
47779;DHT22;33538;48.432;11.350;2022-09-23T10:01:20;10.00;86.70
47779;DHT22;33538;48.432;11.350;2022-09-23T10:03:48;10.00;87.80
47779;DHT22;33538;48.432;11.350;2022-09-23T10:06:20;10.00;87.70
47779;DHT22;33538;48.432;11.350;2022-09-23T10:09:07;10.10;87.90
47779;DHT22;33538;48.432;11.350;2022-09-23T10:11:35;10.20;88.60
47779;DHT22;33538;48.432;11.350;2022-09-23T10:14:09;10.20;89.40
47779;DHT22;33538;48.432;11.350;2022-09-23T10:16:36;10.20;90.00
47779;DHT22;33538;48.432;11.350;2022-09-23T10:19:12;10.20;90.00
47779;DHT22;33538;48.432;11.350;2022-09-23T10:21:39;10.30;90.20
47779;DHT22;33538;48.432;11.350;2022-09-23T10:24:07;10.30;90.00
47779;DHT22;33538;48.432;11.350;2022-09-23T10:26:40;10.30;90.20
47779;DHT22;33538;48.432;11.350;2022-09-23T10:29:22;10.40;90.30
47779;DHT22;33538;48.432;11.350;2022-09-23T10:31:50;10.40;90.50
47779;DHT22;33538;48.432;11.350;2022-09-23T10:34:41;10.40;90.90
47779;DHT22;33538;48.432;11.350;2022-09-23T10:37:14;10.50;91.00
47779;DHT22;33538;48.432;11.350;2022-09-23T10:39:42;10.50;91.10
47779;DHT22;33538;48.432;11.350;2022-09-23T10:42:16;10.50;91.30
47779;DHT22;33538;48.432;11.350;2022-09-23T10:44:57;10.50;91.60
47779;DHT22;33538;48.432;11.350;2022-09-23T10:47:32;10.60;91.80
47779;DHT22;33538;48.432;11.350;2022-09-23T10:50:12;10.60;92.10
47779;DHT22;33538;48.432;11.350;2022-09-23T10:53:03;10.60;92.30
47779;DHT22;33538;48.432;11.350;2022-09-23T10:55:53;10.70;93.10
47779;DHT22;33538;48.432;11.350;2022-09-23T10:58:49;10.70;93.10
47779;DHT22;33538;48.432;11.350;2022-09-23T11:01:23;10.70;92.90
47779;DHT22;33538;48.432;11.350;2022-09-23T11:04:00;10.80;93.20
47779;DHT22;33538;48.432;11.350;2022-09-23T11:06:43;10.80;94.00
47779;DHT22;33538;48.432;11.350;2022-09-23T11:09:25;10.90;93.70
47779;DHT22;33538;48.432;11.350;2022-09-23T11:12:03;10.90;94.00
47779;DHT22;33538;48.432;11.350;2022-09-23T11:14:49;10.90;94.30
47779;DHT22;33538;48.432;11.350;2022-09-23T11:17:42;10.90;94.50
47779;DHT22;33538;48.432;11.350;2022-09-23T11:20:22;11.00;94.90
47779;DHT22;33538;48.432;11.350;2022-09-23T11:25:44;11.00;95.90
47779;DHT22;33538;48.432;11.350;2022-09-23T11:28:40;11.00;95.70
47779;DHT22;33538;48.432;11.350;2022-09-23T11:31:22;11.10;95.90
47779;DHT22;33538;48.432;11.350;2022-09-23T11:34:01;11.10;96.30
47779;DHT22;33538;48.432;11.350;2022-09-23T11:36:37;11.10;96.50
47779;DHT22;33538;48.432;11.350;2022-09-23T11:39:09;11.10;96.80
47779;DHT22;33538;48.432;11.350;2022-09-23T11:41:38;11.20;96.90
47779;DHT22;33538;48.432;11.350;2022-09-23T11:44:12;11.20;97.20
47779;DHT22;33538;48.432;11.350;2022-09-23T11:46:43;11.20;97.20
47779;DHT22;33538;48.432;11.350;2022-09-23T11:49:15;11.30;97.60
47779;DHT22;33538;48.432;11.350;2022-09-23T11:51:53;11.30;97.70
47779;DHT22;33538;48.432;11.350;2022-09-23T11:54:26;11.30;98.10
47779;DHT22;33538;48.432;11.350;2022-09-23T11:56:57;11.40;98.60
47779;DHT22;33538;48.432;11.350;2022-09-23T11:59:30;11.40;98.40
47779;DHT22;33538;48.432;11.350;2022-09-23T12:02:13;11.40;98.50
47779;DHT22;33538;48.432;11.350;2022-09-23T12:04:56;11.40;98.60
47779;DHT22;33538;48.432;11.350;2022-09-23T12:07:28;11.40;98.90
47779;DHT22;33538;48.432;11.350;2022-09-23T12:09:59;11.50;99.20
47779;DHT22;33538;48.432;11.350;2022-09-23T12:12:34;11.50;99.40
47779;DHT22;33538;48.432;11.350;2022-09-23T12:15:05;11.50;99.40
47779;DHT22;33538;48.432;11.350;2022-09-23T12:20:48;11.50;99.70
47779;DHT22;33538;48.432;11.350;2022-09-23T12:23:30;11.60;99.90
47779;DHT22;33538;48.432;11.350;2022-09-23T12:26:03;11.60;99.90
47779;DHT22;33538;48.432;11.350;2022-09-23T12:28:35;11.70;99.90
47779;DHT22;33538;48.432;11.350;2022-09-23T12:31:04;11.70;99.90
47779;DHT22;33538;48.432;11.350;2022-09-23T12:33:32;11.70;99.90
47779;DHT22;33538;48.432;11.350;2022-09-23T12:36:04;11.70;99.90
47779;DHT22;33538;48.432;11.350;2022-09-23T12:38:33;11.70;99.90
47779;DHT22;33538;48.432;11.350;2022-09-23T12:41:01;11.70;99.90
47779;DHT22;33538;48.432;11.350;2022-09-23T12:43:30;11.80;99.90
47779;DHT22;33538;48.432;11.350;2022-09-23T12:46:18;11.80;99.90
47779;DHT22;33538;48.432;11.350;2022-09-23T12:48:46;11.80;99.90
47779;DHT22;33538;48.432;11.350;2022-09-23T12:51:25;11.80;99.90
47779;DHT22;33538;48.432;11.350;2022-09-23T12:53:54;11.80;99.90
47779;DHT22;33538;48.432;11.350;2022-09-23T12:56:24;11.90;99.90
47779;DHT22;33538;48.432;11.350;2022-09-23T12:59:10;11.90;99.90
47779;DHT22;33538;48.432;11.350;2022-09-23T13:01:40;11.90;99.90
47779;DHT22;33538;48.432;11.350;2022-09-23T13:07:13;11.90;99.90
47779;DHT22;33538;48.432;11.350;2022-09-23T13:09:44;12.00;99.90
47779;DHT22;33538;48.432;11.350;2022-09-23T13:12:17;12.00;99.90
47779;DHT22;33538;48.432;11.350;2022-09-23T13:14:45;12.00;99.90
47779;DHT22;33538;48.432;11.350;2022-09-23T13:17:23;12.00;99.90
47779;DHT22;33538;48.432;11.350;2022-09-23T13:19:58;12.10;99.90
47779;DHT22;33538;48.432;11.350;2022-09-23T13:25:25;12.10;99.90
47779;DHT22;33538;48.432;11.350;2022-09-23T13:27:54;12.10;99.90
47779;DHT22;33538;48.432;11.350;2022-09-23T13:30:23;12.10;99.90
47779;DHT22;33538;48.432;11.350;2022-09-23T13:33:01;12.20;99.90
47779;DHT22;33538;48.432;11.350;2022-09-23T13:35:33;12.20;99.90
47779;DHT22;33538;48.432;11.350;2022-09-23T13:38:08;12.20;99.90
47779;DHT22;33538;48.432;11.350;2022-09-23T13:40:37;12.20;99.90
47779;DHT22;33538;48.432;11.350;2022-09-23T13:43:09;12.20;99.90
47779;DHT22;33538;48.432;11.350;2022-09-23T13:45:39;12.20;99.90
47779;DHT22;33538;48.432;11.350;2022-09-23T13:48:10;12.20;99.90
47779;DHT22;33538;48.432;11.350;2022-09-23T13:50:38;12.20;99.90
47779;DHT22;33538;48.432;11.350;2022-09-23T13:53:07;12.30;99.90
47779;DHT22;33538;48.432;11.350;2022-09-23T13:55:37;12.30;99.90
47779;DHT22;33538;48.432;11.350;2022-09-23T13:58:12;12.30;99.90
47779;DHT22;33538;48.432;11.350;2022-09-23T14:00:39;12.30;99.90
47779;DHT22;33538;48.432;11.350;2022-09-23T14:03:17;12.30;99.90
47779;DHT22;33538;48.432;11.350;2022-09-23T14:05:44;12.40;99.90
47779;DHT22;33538;48.432;11.350;2022-09-23T14:08:11;12.40;99.90
47779;DHT22;33538;48.432;11.350;2022-09-23T14:10:39;12.40;99.90
47779;DHT22;33538;48.432;11.350;2022-09-23T14:13:13;12.40;99.90
47779;DHT22;33538;48.432;11.350;2022-09-23T14:15:40;12.40;99.90
47779;DHT22;33538;48.432;11.350;2022-09-23T14:18:06;12.40;99.90
47779;DHT22;33538;48.432;11.350;2022-09-23T14:20:44;12.50;99.90
47779;DHT22;33538;48.432;11.350;2022-09-23T14:23:12;12.50;99.90
47779;DHT22;33538;48.432;11.350;2022-09-23T14:25:41;12.50;99.90
47779;DHT22;33538;48.432;11.350;2022-09-23T14:28:12;12.50;99.90
47779;DHT22;33538;48.432;11.350;2022-09-23T14:30:39;12.50;99.90
47779;DHT22;33538;48.432;11.350;2022-09-23T14:33:08;12.60;99.90
47779;DHT22;33538;48.432;11.350;2022-09-23T14:35:39;12.60;99.90
47779;DHT22;33538;48.432;11.350;2022-09-23T14:38:06;12.60;99.90
47779;DHT22;33538;48.432;11.350;2022-09-23T14:40:35;12.60;99.90
47779;DHT22;33538;48.432;11.350;2022-09-23T14:43:10;12.60;99.90
47779;DHT22;33538;48.432;11.350;2022-09-23T14:45:43;12.70;99.90
47779;DHT22;33538;48.432;11.350;2022-09-23T14:48:14;12.70;99.90
47779;DHT22;33538;48.432;11.350;2022-09-23T14:50:46;12.70;99.90
47779;DHT22;33538;48.432;11.350;2022-09-23T14:53:37;12.70;99.90
47779;DHT22;33538;48.432;11.350;2022-09-23T14:56:13;12.70;99.90
47779;DHT22;33538;48.432;11.350;2022-09-23T14:58:44;12.70;99.90
47779;DHT22;33538;48.432;11.350;2022-09-23T15:01:24;12.80;99.90
47779;DHT22;33538;48.432;11.350;2022-09-23T15:03:51;12.80;99.90
47779;DHT22;33538;48.432;11.350;2022-09-23T15:06:18;12.80;99.90
47779;DHT22;33538;48.432;11.350;2022-09-23T15:08:47;12.80;99.90
47779;DHT22;33538;48.432;11.350;2022-09-23T15:11:14;12.80;99.90
47779;DHT22;33538;48.432;11.350;2022-09-23T15:13:46;12.80;99.90
47779;DHT22;33538;48.432;11.350;2022-09-23T15:16:14;12.80;99.90
47779;DHT22;33538;48.432;11.350;2022-09-23T15:18:43;12.80;99.90
47779;DHT22;33538;48.432;11.350;2022-09-23T15:21:12;12.90;99.90
47779;DHT22;33538;48.432;11.350;2022-09-23T15:23:43;12.80;99.90
47779;DHT22;33538;48.432;11.350;2022-09-23T15:26:14;12.90;99.90
47779;DHT22;33538;48.432;11.350;2022-09-23T15:28:42;12.90;99.90
47779;DHT22;33538;48.432;11.350;2022-09-23T15:31:10;12.80;99.90
47779;DHT22;33538;48.432;11.350;2022-09-23T15:33:37;12.90;99.90
47779;DHT22;33538;48.432;11.350;2022-09-23T15:36:04;12.90;99.90
47779;DHT22;33538;48.432;11.350;2022-09-23T15:38:31;12.90;99.90
47779;DHT22;33538;48.432;11.350;2022-09-23T15:40:58;12.90;99.90
47779;DHT22;33538;48.432;11.350;2022-09-23T15:43:24;12.90;99.90
47779;DHT22;33538;48.432;11.350;2022-09-23T15:45:54;13.00;99.90
47779;DHT22;33538;48.432;11.350;2022-09-23T15:48:25;13.00;99.90
47779;DHT22;33538;48.432;11.350;2022-09-23T15:50:53;13.00;99.90
47779;DHT22;33538;48.432;11.350;2022-09-23T15:53:23;13.00;99.90
47779;DHT22;33538;48.432;11.350;2022-09-23T15:55:49;13.00;99.90
47779;DHT22;33538;48.432;11.350;2022-09-23T15:58:16;13.00;99.90
47779;DHT22;33538;48.432;11.350;2022-09-23T16:00:43;13.00;99.90
47779;DHT22;33538;48.432;11.350;2022-09-23T16:03:13;13.00;99.90